createdAt,value
2018-12-18T00:00:54.319Z,90.80
2018-12-18T00:03:22.693Z,90.60
2018-12-18T00:05:51.034Z,90.60
2018-12-18T00:08:19.337Z,90.60
2018-12-18T00:13:38.726Z,90.80
2018-12-18T00:16:06.967Z,90.80
2018-12-18T00:18:35.228Z,90.70
2018-12-18T00:21:03.763Z,90.80
2018-12-18T00:23:32.038Z,90.80
2018-12-18T00:26:00.404Z,90.90
2018-12-18T00:28:28.632Z,90.90
2018-12-18T00:30:56.964Z,90.90
2018-12-18T00:33:25.216Z,91.20
2018-12-18T00:35:53.469Z,90.90
2018-12-18T00:38:21.807Z,90.90
2018-12-18T00:40:50.071Z,90.60
2018-12-18T00:43:18.291Z,90.60
2018-12-18T00:45:46.891Z,90.60
2018-12-18T00:48:15.419Z,90.60
2018-12-18T00:50:43.818Z,90.50
2018-12-18T00:53:12.261Z,90.50
2018-12-18T00:55:40.518Z,90.50
2018-12-18T00:58:08.767Z,90.40
2018-12-18T01:00:37.024Z,90.30
2018-12-18T01:03:05.462Z,90.30
2018-12-18T01:05:33.692Z,90.30
2018-12-18T01:08:02.051Z,90.20
2018-12-18T01:10:30.507Z,90.10
2018-12-18T01:12:58.749Z,90.20
2018-12-18T01:15:27.093Z,90.10
2018-12-18T01:17:55.315Z,90.10
2018-12-18T01:20:23.643Z,90.00
2018-12-18T01:22:51.883Z,90.00
2018-12-18T01:25:20.179Z,90.00
2018-12-18T01:27:48.391Z,90.00
2018-12-18T01:30:16.771Z,90.00
2018-12-18T01:32:45.059Z,90.00
2018-12-18T01:35:13.407Z,90.00
2018-12-18T01:37:41.738Z,90.00
2018-12-18T01:40:10.111Z,90.00
2018-12-18T01:42:38.509Z,90.00
2018-12-18T01:45:06.847Z,90.10
2018-12-18T01:47:35.058Z,90.10
2018-12-18T01:50:03.898Z,90.00
2018-12-18T01:52:32.347Z,90.00
2018-12-18T01:55:00.719Z,90.10
2018-12-18T01:57:29.022Z,90.10
2018-12-18T01:59:57.246Z,90.20
2018-12-18T02:02:25.655Z,90.20
2018-12-18T02:04:53.939Z,90.20
2018-12-18T02:07:22.301Z,90.30
2018-12-18T02:09:50.599Z,90.30
2018-12-18T02:12:18.821Z,90.40
2018-12-18T02:14:47.045Z,90.30
2018-12-18T02:17:15.266Z,90.40
2018-12-18T02:19:43.693Z,90.50
2018-12-18T02:22:11.945Z,90.50
2018-12-18T02:24:40.419Z,90.50
2018-12-18T02:27:08.629Z,90.60
2018-12-18T02:29:36.902Z,90.60
2018-12-18T02:32:05.140Z,90.60
2018-12-18T02:34:33.381Z,90.70
2018-12-18T02:37:01.600Z,90.70
2018-12-18T02:39:29.885Z,90.60
2018-12-18T02:41:58.115Z,90.70
2018-12-18T02:44:26.447Z,90.70
2018-12-18T02:46:54.915Z,90.70
2018-12-18T02:49:23.233Z,90.70
2018-12-18T02:51:56.244Z,90.70
2018-12-18T02:54:24.477Z,90.70
2018-12-18T02:56:52.713Z,90.90
2018-12-18T02:59:20.935Z,90.70
2018-12-18T03:01:49.144Z,90.80
2018-12-18T03:04:21.402Z,90.90
2018-12-18T03:06:47.892Z,90.90
2018-12-18T03:09:16.480Z,90.90
2018-12-18T03:11:44.766Z,91.00
2018-12-18T03:14:13.032Z,91.00
2018-12-18T03:16:41.514Z,90.90
2018-12-18T03:19:09.891Z,90.90
2018-12-18T03:21:38.157Z,90.80
2018-12-18T03:24:06.374Z,90.90
2018-12-18T03:26:34.592Z,90.80
2018-12-18T03:29:03.059Z,90.90
2018-12-18T03:31:31.765Z,90.80
2018-12-18T03:34:00.057Z,90.80
2018-12-18T03:36:28.363Z,90.70
2018-12-18T03:38:56.743Z,90.60
2018-12-18T03:41:25.016Z,90.60
2018-12-18T03:43:53.455Z,90.60
2018-12-18T03:46:21.731Z,90.70
2018-12-18T03:48:50.001Z,90.70
2018-12-18T03:51:18.284Z,90.80
2018-12-18T03:53:46.746Z,90.90
2018-12-18T03:56:14.958Z,90.80
2018-12-18T03:58:43.262Z,90.90
2018-12-18T04:03:45.914Z,90.90
2018-12-18T04:06:14.184Z,90.90
2018-12-18T04:11:17.003Z,90.90
2018-12-18T04:13:45.281Z,91.10
2018-12-18T04:16:13.503Z,90.60
2018-12-18T04:18:41.916Z,90.60
2018-12-18T04:21:10.157Z,90.60
2018-12-18T04:23:38.459Z,90.60
2018-12-18T04:26:06.699Z,90.50
2018-12-18T04:28:34.931Z,90.50
2018-12-18T04:31:03.204Z,90.40
2018-12-18T04:33:31.546Z,90.40
2018-12-18T04:35:59.963Z,90.40
2018-12-18T04:38:28.343Z,90.30
2018-12-18T04:40:56.611Z,90.40
2018-12-18T04:43:25.203Z,90.30
2018-12-18T04:45:53.535Z,90.30
2018-12-18T04:48:21.751Z,90.20
2018-12-18T04:50:50.219Z,90.40
2018-12-18T04:53:18.611Z,90.30
2018-12-18T04:55:46.850Z,90.20
2018-12-18T04:58:15.163Z,90.30
2018-12-18T05:00:43.503Z,90.20
2018-12-18T05:03:11.902Z,90.50
2018-12-18T05:05:40.413Z,90.20
2018-12-18T05:08:08.754Z,90.20
2018-12-18T05:10:37.088Z,90.20
2018-12-18T05:13:05.394Z,90.30
2018-12-18T05:15:33.797Z,90.40
2018-12-18T05:18:02.042Z,90.50
2018-12-18T05:20:30.254Z,90.80
2018-12-18T05:22:58.523Z,90.60
2018-12-18T05:25:26.749Z,90.50
2018-12-18T05:27:55.023Z,91.00
2018-12-18T05:30:23.244Z,90.60
2018-12-18T05:32:51.473Z,90.70
2018-12-18T05:35:19.815Z,90.70
2018-12-18T05:37:48.080Z,90.70
2018-12-18T05:40:16.356Z,90.60
2018-12-18T05:42:44.587Z,90.60
2018-12-18T05:45:12.812Z,90.60
2018-12-18T05:47:41.047Z,90.60
2018-12-18T05:50:09.329Z,90.70
2018-12-18T05:52:37.642Z,90.70
2018-12-18T05:55:07.707Z,90.70
2018-12-18T05:57:36.099Z,90.80
2018-12-18T06:00:05.324Z,90.90
2018-12-18T06:02:33.535Z,91.00
2018-12-18T06:05:03.325Z,91.10
2018-12-18T06:07:31.844Z,91.00
2018-12-18T06:10:00.127Z,90.90
2018-12-18T06:12:28.339Z,90.80
2018-12-18T06:14:56.564Z,90.70
2018-12-18T06:17:24.775Z,90.80
2018-12-18T06:19:53.002Z,90.70
2018-12-18T06:22:21.352Z,90.70
2018-12-18T06:24:49.578Z,90.70
2018-12-18T06:27:18.346Z,90.80
2018-12-18T06:29:46.560Z,90.80
2018-12-18T06:32:14.859Z,90.80
2018-12-18T06:34:43.240Z,90.80
2018-12-18T06:37:11.453Z,90.80
2018-12-18T06:39:39.711Z,90.70
2018-12-18T06:42:07.996Z,90.70
2018-12-18T06:44:36.243Z,90.60
2018-12-18T06:47:04.520Z,90.50
2018-12-18T06:49:32.748Z,90.50
2018-12-18T06:52:01.071Z,90.60
2018-12-18T06:54:29.326Z,90.60
2018-12-18T06:56:57.531Z,90.60
2018-12-18T06:59:25.750Z,90.50
2018-12-18T07:01:53.964Z,90.40
2018-12-18T07:04:22.199Z,90.40
2018-12-18T07:06:50.437Z,90.30
2018-12-18T07:09:18.648Z,90.30
2018-12-18T07:11:46.871Z,90.30
2018-12-18T07:14:15.089Z,90.30
2018-12-18T07:16:43.293Z,90.30
2018-12-18T07:19:11.552Z,90.20
2018-12-18T07:21:39.795Z,90.10
2018-12-18T07:24:13.888Z,90.10
2018-12-18T07:26:38.370Z,90.30
2018-12-18T07:29:06.651Z,90.40
2018-12-18T07:31:34.863Z,90.30
2018-12-18T07:34:03.115Z,90.20
2018-12-18T07:36:31.499Z,90.10
2018-12-18T07:38:59.707Z,90.00
2018-12-18T07:41:27.933Z,89.80
2018-12-18T07:43:56.301Z,90.10
2018-12-18T07:46:24.518Z,90.20
2018-12-18T07:48:52.848Z,90.20
2018-12-18T07:51:21.065Z,90.30
2018-12-18T07:53:49.443Z,90.20
2018-12-18T07:56:17.707Z,90.30
2018-12-18T07:58:45.961Z,90.20
2018-12-18T08:01:14.172Z,90.30
2018-12-18T08:03:42.407Z,90.30
2018-12-18T08:06:10.628Z,90.20
2018-12-18T08:08:38.876Z,90.00
2018-12-18T08:11:07.081Z,90.00
2018-12-18T08:13:35.317Z,90.10
2018-12-18T08:16:03.582Z,90.10
2018-12-18T08:18:31.790Z,90.00
2018-12-18T08:21:00.040Z,90.00
2018-12-18T08:23:28.272Z,89.90
2018-12-18T08:25:56.539Z,89.90
2018-12-18T08:28:24.803Z,89.30
2018-12-18T08:30:53.037Z,89.90
2018-12-18T08:33:21.278Z,89.50
2018-12-18T08:35:49.591Z,89.20
2018-12-18T08:38:17.885Z,89.00
2018-12-18T08:40:46.185Z,88.90
2018-12-18T08:43:14.471Z,88.80
2018-12-18T08:45:42.707Z,88.50
2018-12-18T08:48:11.116Z,88.20
2018-12-18T08:50:39.337Z,88.10
2018-12-18T08:53:07.578Z,87.90
2018-12-18T08:55:35.810Z,87.20
2018-12-18T08:58:04.095Z,87.10
2018-12-18T09:00:32.355Z,86.80
2018-12-18T09:03:00.562Z,86.20
2018-12-18T09:05:28.799Z,86.60
2018-12-18T09:07:57.083Z,86.40
2018-12-18T09:10:25.327Z,86.40
2018-12-18T09:12:53.532Z,86.40
2018-12-18T09:15:27.354Z,86.20
2018-12-18T09:17:55.636Z,85.30
2018-12-18T09:20:23.947Z,85.40
2018-12-18T09:22:52.175Z,85.00
2018-12-18T09:25:20.518Z,85.00
2018-12-18T09:27:48.778Z,83.70
2018-12-18T09:30:17.098Z,83.50
2018-12-18T09:32:45.308Z,84.40
2018-12-18T09:35:13.565Z,84.20
2018-12-18T09:37:42.697Z,84.10
2018-12-18T09:40:10.955Z,84.20
2018-12-18T09:42:44.902Z,84.40
2018-12-18T09:45:13.380Z,83.70
2018-12-18T09:47:41.602Z,84.00
2018-12-18T09:50:09.961Z,83.60
2018-12-18T09:52:38.171Z,82.80
2018-12-18T09:55:08.004Z,82.10
2018-12-18T09:57:57.069Z,81.50
2018-12-18T10:00:25.526Z,81.50
2018-12-18T10:02:53.751Z,80.80
2018-12-18T10:05:21.959Z,80.90
2018-12-18T10:07:50.419Z,80.50
2018-12-18T10:10:18.657Z,80.20
2018-12-18T10:13:01.143Z,80.40
2018-12-18T10:15:29.401Z,80.20
2018-12-18T10:17:57.754Z,80.10
2018-12-18T10:20:25.959Z,80.60
2018-12-18T10:22:54.200Z,81.00
2018-12-18T10:25:22.527Z,81.10
2018-12-18T10:27:50.791Z,81.20
2018-12-18T10:30:19.032Z,81.30
2018-12-18T10:32:47.416Z,81.50
2018-12-18T10:35:15.914Z,81.60
2018-12-18T10:37:44.133Z,81.60
2018-12-18T10:40:12.666Z,81.70
2018-12-18T10:42:41.503Z,82.00
2018-12-18T10:45:13.844Z,81.70
2018-12-18T10:47:42.311Z,82.00
2018-12-18T10:50:10.579Z,82.00
2018-12-18T10:52:38.794Z,82.10
2018-12-18T10:55:07.134Z,81.90
2018-12-18T10:57:35.410Z,81.40
2018-12-18T11:03:00.607Z,80.50
2018-12-18T11:05:28.867Z,80.20
2018-12-18T11:07:57.245Z,80.70
2018-12-18T11:10:25.475Z,80.00
2018-12-18T11:12:59.247Z,80.00
2018-12-18T11:15:27.494Z,81.00
2018-12-18T11:17:55.831Z,79.90
2018-12-18T11:20:24.157Z,79.40
2018-12-18T11:22:52.382Z,80.00
2018-12-18T11:25:20.600Z,79.50
2018-12-18T11:27:48.855Z,78.40
2018-12-18T11:30:17.091Z,78.90
2018-12-18T11:32:45.372Z,78.80
2018-12-18T11:35:13.674Z,79.10
2018-12-18T11:37:41.907Z,78.60
2018-12-18T11:40:10.333Z,78.90
2018-12-18T11:42:38.561Z,79.40
2018-12-18T11:45:06.889Z,79.60
2018-12-18T11:47:35.108Z,78.90
2018-12-18T11:50:04.835Z,79.30
2018-12-18T11:52:33.052Z,79.60
2018-12-18T11:55:01.345Z,79.80
2018-12-18T11:57:29.604Z,80.00
2018-12-18T11:59:57.852Z,80.00
2018-12-18T12:02:26.064Z,80.50
2018-12-18T12:04:54.419Z,80.70
2018-12-18T12:07:22.674Z,80.20
2018-12-18T12:09:50.912Z,80.00
2018-12-18T12:12:19.283Z,78.30
2018-12-18T12:14:47.963Z,77.20
2018-12-18T12:17:16.465Z,77.30
2018-12-18T12:19:44.761Z,77.70
2018-12-18T12:22:13.066Z,78.30
2018-12-18T12:24:41.299Z,77.70
2018-12-18T12:27:14.826Z,77.50
2018-12-18T12:29:43.159Z,77.20
2018-12-18T12:32:11.412Z,76.40
2018-12-18T12:34:39.639Z,77.20
2018-12-18T12:37:07.854Z,77.40
2018-12-18T12:39:36.317Z,75.60
2018-12-18T12:42:04.562Z,74.60
2018-12-18T12:44:33.025Z,73.20
2018-12-18T12:47:01.283Z,72.50
2018-12-18T12:49:34.975Z,72.70
2018-12-18T12:52:03.463Z,71.30
2018-12-18T12:54:31.885Z,71.00
2018-12-18T12:57:00.169Z,69.60
2018-12-18T12:59:28.538Z,69.90
2018-12-18T13:01:56.775Z,66.90
2018-12-18T13:04:25.075Z,66.60
2018-12-18T13:06:53.382Z,66.20
2018-12-18T13:09:21.616Z,65.40
2018-12-18T13:11:49.828Z,65.50
2018-12-18T13:14:18.192Z,64.70
2018-12-18T13:16:46.491Z,62.50
2018-12-18T13:19:14.729Z,62.40
2018-12-18T13:21:43.128Z,61.80
2018-12-18T13:24:11.452Z,61.20
2018-12-18T13:26:39.711Z,61.30
2018-12-18T13:29:07.951Z,59.80
2018-12-18T13:31:36.335Z,60.10
2018-12-18T13:34:04.696Z,60.20
2018-12-18T13:36:32.931Z,60.40
2018-12-18T13:39:01.178Z,60.00
2018-12-18T13:41:29.388Z,60.00
2018-12-18T13:43:57.611Z,60.60
2018-12-18T13:46:25.901Z,61.70
2018-12-18T13:48:54.110Z,61.80
2018-12-18T13:51:22.339Z,62.00
2018-12-18T13:53:50.715Z,62.40
2018-12-18T13:56:19.022Z,64.10
2018-12-18T13:58:47.276Z,65.50
2018-12-18T14:01:15.491Z,67.00
2018-12-18T14:03:43.819Z,67.80
2018-12-18T14:06:12.039Z,68.70
2018-12-18T14:08:45.081Z,69.70
2018-12-18T14:11:13.468Z,70.70
2018-12-18T14:13:41.691Z,71.00
2018-12-18T14:16:10.053Z,71.60
2018-12-18T14:18:38.596Z,72.20
2018-12-18T14:21:06.859Z,72.60
2018-12-18T14:23:35.267Z,73.20
2018-12-18T14:26:03.570Z,73.50
2018-12-18T14:28:31.815Z,73.90
2018-12-18T14:31:00.083Z,74.40
2018-12-18T14:33:28.307Z,74.80
2018-12-18T14:35:56.623Z,75.90
2018-12-18T14:38:24.863Z,77.20
2018-12-18T14:40:53.104Z,76.90
2018-12-18T14:43:21.563Z,77.00
2018-12-18T14:45:49.819Z,77.50
2018-12-18T14:48:18.223Z,78.00
2018-12-18T14:50:46.462Z,77.80
2018-12-18T14:53:14.695Z,78.80
2018-12-18T14:55:42.950Z,79.20
2018-12-18T14:58:11.229Z,80.40
2018-12-18T15:00:39.599Z,80.20
2018-12-18T15:03:07.839Z,80.30
2018-12-18T15:05:36.115Z,80.70
2018-12-18T15:08:04.330Z,81.10
2018-12-18T15:10:32.603Z,81.50
2018-12-18T15:13:01.359Z,81.60
2018-12-18T15:15:29.645Z,82.40
2018-12-18T15:17:57.956Z,83.60
2018-12-18T15:20:26.218Z,83.00
2018-12-18T15:22:54.421Z,82.70
2018-12-18T15:25:22.642Z,82.80
2018-12-18T15:27:50.871Z,83.10
2018-12-18T15:30:25.705Z,83.70
2018-12-18T15:32:49.657Z,84.00
2018-12-18T15:35:17.985Z,84.30
2018-12-18T15:37:46.227Z,84.50
2018-12-18T15:40:14.587Z,84.70
2018-12-18T15:42:42.865Z,85.10
2018-12-18T15:45:11.122Z,85.30
2018-12-18T15:47:39.483Z,85.60
2018-12-18T15:50:07.988Z,85.80
2018-12-18T15:52:36.300Z,85.80
2018-12-18T15:55:05.491Z,86.10
2018-12-18T15:57:33.787Z,86.00
2018-12-18T16:00:02.048Z,85.80
2018-12-18T16:02:30.384Z,85.60
2018-12-18T16:04:58.624Z,85.60
2018-12-18T16:07:27.052Z,85.40
2018-12-18T16:09:55.454Z,85.50
2018-12-18T16:12:23.710Z,85.50
2018-12-18T16:14:51.914Z,85.50
2018-12-18T16:17:20.211Z,85.20
2018-12-18T16:19:48.443Z,85.20
2018-12-18T16:22:16.707Z,85.20
2018-12-18T16:24:44.951Z,85.20
2018-12-18T16:27:13.201Z,85.10
2018-12-18T16:29:41.454Z,85.30
2018-12-18T16:32:09.811Z,85.00
2018-12-18T16:34:38.079Z,85.20
2018-12-18T16:37:06.470Z,85.20
2018-12-18T16:39:34.854Z,85.20
2018-12-18T16:42:03.160Z,85.30
2018-12-18T16:44:31.423Z,85.10
2018-12-18T16:46:59.644Z,85.10
2018-12-18T16:49:27.881Z,85.40
2018-12-18T16:51:56.122Z,85.60
2018-12-18T16:54:24.791Z,85.70
2018-12-18T16:56:53.108Z,85.80
2018-12-18T16:59:21.325Z,85.80
2018-12-18T17:01:49.614Z,85.70
2018-12-18T17:04:17.852Z,85.60
2018-12-18T17:06:46.145Z,85.80
2018-12-18T17:09:14.384Z,86.00
2018-12-18T17:11:42.704Z,86.20
2018-12-18T17:14:10.928Z,86.20
2018-12-18T17:16:39.139Z,86.50
2018-12-18T17:19:07.428Z,86.70
2018-12-18T17:21:35.756Z,87.00
2018-12-18T17:24:04.003Z,87.40
2018-12-18T17:26:32.224Z,88.50
2018-12-18T17:29:00.492Z,90.00
2018-12-18T17:31:28.712Z,90.60
2018-12-18T17:33:56.964Z,91.00
2018-12-18T17:36:25.187Z,91.50
2018-12-18T17:38:53.476Z,91.90
2018-12-18T17:41:21.701Z,92.20
2018-12-18T17:43:50.303Z,92.40
2018-12-18T17:46:18.537Z,92.30
2018-12-18T17:48:46.789Z,92.40
2018-12-18T17:51:15.010Z,92.40
2018-12-18T17:53:43.351Z,92.30
2018-12-18T17:56:11.633Z,92.30
2018-12-18T17:58:39.905Z,92.30
2018-12-18T18:01:08.095Z,92.50
2018-12-18T18:03:36.364Z,92.50
2018-12-18T18:06:04.662Z,92.50
2018-12-18T18:08:33.016Z,92.40
2018-12-18T18:11:01.392Z,92.30
2018-12-18T18:13:29.658Z,92.20
2018-12-18T18:15:58.139Z,92.10
2018-12-18T18:18:26.387Z,92.10
2018-12-18T18:20:54.673Z,91.80
2018-12-18T18:23:22.888Z,91.70
2018-12-18T18:25:51.168Z,91.60
2018-12-18T18:28:19.368Z,91.60
2018-12-18T18:30:47.701Z,91.80
2018-12-18T18:33:15.935Z,91.80
2018-12-18T18:35:44.184Z,91.50
2018-12-18T18:38:12.497Z,91.50
2018-12-18T18:40:40.726Z,91.10
2018-12-18T18:43:08.949Z,91.00
2018-12-18T18:45:37.771Z,91.10
2018-12-18T18:48:05.985Z,91.10
2018-12-18T18:50:34.420Z,91.00
2018-12-18T18:53:02.637Z,91.10
2018-12-18T18:55:30.984Z,90.80
2018-12-18T18:57:59.232Z,90.80
2018-12-18T19:00:27.702Z,90.90
2018-12-18T19:02:56.002Z,91.00
2018-12-18T19:05:24.247Z,90.90
2018-12-18T19:07:56.483Z,90.80
2018-12-18T19:10:22.751Z,90.90
2018-12-18T19:15:37.564Z,90.70
2018-12-18T19:18:05.826Z,90.50
2018-12-18T19:20:34.035Z,90.80
2018-12-18T19:23:02.397Z,90.80
2018-12-18T19:25:30.594Z,91.00
2018-12-18T19:27:58.875Z,90.90
2018-12-18T19:30:27.122Z,90.80
2018-12-18T19:32:55.369Z,90.80
2018-12-18T19:35:23.663Z,90.80
2018-12-18T19:37:51.955Z,90.80
2018-12-18T19:40:20.191Z,90.70
2018-12-18T19:42:48.396Z,90.60
2018-12-18T19:45:16.676Z,90.50
2018-12-18T19:47:44.928Z,90.30
2018-12-18T19:50:13.210Z,90.50
2018-12-18T19:52:41.595Z,90.70
2018-12-18T19:55:09.835Z,90.90
2018-12-18T19:57:38.080Z,91.10
2018-12-18T20:00:10.282Z,91.10
2018-12-18T20:02:38.542Z,90.70
2018-12-18T20:05:07.012Z,90.50
2018-12-18T20:07:35.290Z,90.20
2018-12-18T20:10:03.866Z,90.30
2018-12-18T20:12:32.082Z,90.30
2018-12-18T20:15:01.129Z,90.30
2018-12-18T20:17:29.369Z,90.40
2018-12-18T20:19:57.746Z,90.50
2018-12-18T20:22:26.218Z,90.50
2018-12-18T20:24:54.422Z,90.40
2018-12-18T20:27:22.656Z,90.30
2018-12-18T20:29:51.185Z,90.40
2018-12-18T20:32:19.402Z,90.50
2018-12-18T20:34:47.635Z,90.40
2018-12-18T20:37:18.351Z,90.40
2018-12-18T20:39:46.108Z,90.20
2018-12-18T20:42:14.374Z,90.20
2018-12-18T20:44:42.672Z,90.30
2018-12-18T20:47:10.900Z,90.30
2018-12-18T20:49:39.240Z,90.20
2018-12-18T20:52:07.451Z,90.00
2018-12-18T20:54:35.669Z,90.00
2018-12-18T20:57:03.975Z,89.80
2018-12-18T20:59:32.204Z,89.90
2018-12-18T21:02:00.496Z,89.80
2018-12-18T21:04:28.799Z,89.50
2018-12-18T21:06:57.045Z,89.10
2018-12-18T21:09:25.411Z,89.10
2018-12-18T21:11:53.643Z,89.10
2018-12-18T21:14:21.992Z,89.40
2018-12-18T21:16:50.219Z,89.40
2018-12-18T21:19:19.514Z,89.60
2018-12-18T21:21:47.838Z,90.00
2018-12-18T21:24:16.093Z,89.20
2018-12-18T21:26:44.302Z,89.60
2018-12-18T21:29:12.586Z,89.80
2018-12-18T21:31:40.947Z,89.80
2018-12-18T21:34:10.151Z,90.00
2018-12-18T21:36:38.613Z,90.00
2018-12-18T21:39:08.360Z,90.00
2018-12-18T21:41:36.584Z,89.60
2018-12-18T21:44:04.827Z,89.70
2018-12-18T21:46:33.060Z,89.60
2018-12-18T21:49:01.304Z,89.30
2018-12-18T21:51:29.523Z,89.50
2018-12-18T21:53:57.791Z,89.70
2018-12-18T21:56:26.015Z,90.20
2018-12-18T21:58:54.273Z,90.00
2018-12-18T22:01:22.582Z,89.90
2018-12-18T22:03:50.808Z,89.80
2018-12-18T22:06:19.032Z,89.80
2018-12-18T22:08:47.246Z,89.80
2018-12-18T22:11:15.486Z,90.00
2018-12-18T22:13:43.698Z,90.00
2018-12-18T22:16:12.158Z,89.70
2018-12-18T22:18:40.492Z,89.50
2018-12-18T22:21:08.709Z,89.60
2018-12-18T22:23:36.936Z,89.30
2018-12-18T22:26:05.156Z,89.10
2018-12-18T22:28:33.414Z,89.10
2018-12-18T22:31:01.636Z,89.20
2018-12-18T22:33:30.805Z,89.30
2018-12-18T22:35:59.022Z,89.40
2018-12-18T22:38:27.274Z,89.70
2018-12-18T22:40:55.522Z,89.20
2018-12-18T22:43:23.771Z,89.60
2018-12-18T22:45:52.073Z,90.00
2018-12-18T22:48:20.287Z,90.10
2018-12-18T22:50:48.569Z,90.10
2018-12-18T22:53:16.880Z,90.10
2018-12-18T22:55:45.221Z,90.10
2018-12-18T22:58:13.579Z,90.10
2018-12-18T23:00:47.379Z,90.20
2018-12-18T23:03:15.761Z,90.20
2018-12-18T23:05:44.018Z,90.20
2018-12-18T23:08:12.260Z,90.00
2018-12-18T23:10:40.503Z,90.00
2018-12-18T23:13:08.967Z,89.70
2018-12-18T23:15:37.182Z,89.70
2018-12-18T23:18:05.499Z,90.00
2018-12-18T23:20:33.734Z,90.00
2018-12-18T23:23:01.947Z,89.90
2018-12-18T23:25:30.174Z,89.80
2018-12-18T23:27:58.450Z,90.00
2018-12-18T23:30:26.778Z,90.10
2018-12-18T23:32:54.995Z,90.20
2018-12-18T23:35:23.330Z,90.20
2018-12-18T23:37:51.631Z,90.00
2018-12-18T23:40:19.866Z,90.10
2018-12-18T23:42:48.086Z,90.00
2018-12-18T23:45:16.399Z,89.80
2018-12-18T23:47:44.624Z,89.80
2018-12-18T23:50:12.886Z,89.70
2018-12-18T23:52:41.190Z,89.50
2018-12-18T23:55:09.417Z,89.50
2018-12-18T23:57:37.636Z,89.50
